Time;durP1;ratioP1;P1;durP2;ratioP2;P2;SDS_P1;SDS_P2;PMS_P1;PMS_P2;Temp;Humidity;BMP_temperature;BMP_pressure;BME280_temperature;BME280_humidity;BME280_pressure;Samples;Min_cycle;Max_cycle;Signal;HPM_P1;HPM_P2
2024/03/02 00:01:52;;;;;;;15.47;11.93;;;;;;;10.15;60.66;97640.34;7031006;28;20674;-80
2024/03/02 00:05:14;;;;;;;18.50;12.80;;;;;;;10.43;59.70;97637.81;7030904;28;20761;-81
2024/03/02 00:08:36;;;;;;;15.00;11.50;;;;;;;10.28;59.74;97642.84;7030346;28;20278;-81
2024/03/02 00:12:01;;;;;;;16.30;11.53;;;;;;;10.00;58.86;97626.44;7019577;28;20291;-81
2024/03/02 00:15:42;;;;;;;12.07;9.63;;;;;;;10.20;58.66;97629.69;7003321;28;20193;-80
2024/03/02 00:19:05;;;;;;;15.83;11.17;;;;;;;10.09;58.88;97631.31;7002305;28;20320;-81
2024/03/02 00:22:27;;;;;;;15.03;11.73;;;;;;;10.15;58.35;97630.38;7003390;28;20218;-81
2024/03/02 00:25:50;;;;;;;15.17;10.43;;;;;;;9.94;59.36;97624.69;7003994;28;20315;-81
2024/03/02 00:29:16;;;;;;;15.07;11.50;;;;;;;9.34;59.73;97545.81;7003030;28;20253;-80
2024/03/02 00:32:38;;;;;;;15.90;11.67;;;;;;;9.92;59.23;97597.16;7002558;28;20225;-80
2024/03/02 00:36:00;;;;;;;16.70;12.20;;;;;;;10.49;59.17;97639.56;7012570;28;20201;-79
2024/03/02 00:39:22;;;;;;;15.80;12.30;;;;;;;10.50;59.51;97635.84;7029210;28;20236;-80
2024/03/02 00:42:43;;;;;;;16.13;12.40;;;;;;;10.22;59.78;97585.31;7030014;28;20212;-80
2024/03/02 00:46:07;;;;;;;15.97;12.20;;;;;;;10.68;59.68;97641.13;7028514;28;20374;-80
2024/03/02 00:49:28;;;;;;;16.70;11.83;;;;;;;10.87;58.77;97643.44;7028587;28;20315;-81
2024/03/02 00:52:50;;;;;;;15.60;13.00;;;;;;;10.86;58.56;97628.34;7028952;28;20243;-81
2024/03/02 00:56:12;;;;;;;13.37;10.90;;;;;;;11.08;57.84;97636.63;7029095;28;20205;-81
2024/03/02 00:59:34;;;;;;;16.30;11.20;;;;;;;10.85;58.26;97632.09;7006842;28;20226;-81
2024/03/02 01:02:57;;;;;;;15.47;12.57;;;;;;;10.94;57.91;97640.66;7001077;28;20233;-81
2024/03/02 01:06:18;;;;;;;12.97;10.50;;;;;;;10.76;57.64;97611.94;7000944;28;20320;-80
2024/03/02 01:09:41;;;;;;;19.30;13.30;;;;;;;10.81;57.18;97616.63;6999951;28;20221;-80
2024/03/02 01:13:02;;;;;;;26.53;14.67;;;;;;;10.58;58.17;97638.19;7000986;28;20244;-80
2024/03/02 01:16:24;;;;;;;20.07;13.80;;;;;;;10.44;58.81;97628.66;7000098;28;20202;-80
2024/03/02 01:19:47;;;;;;;21.07;13.10;;;;;;;10.22;58.50;97579.13;6999368;28;20640;-83
2024/03/02 01:23:08;;;;;;;15.60;12.13;;;;;;;10.63;58.06;97614.06;7016348;28;20212;-81
2024/03/02 01:26:30;;;;;;;16.50;12.70;;;;;;;10.32;58.51;97617.06;7028386;28;20260;-83
2024/03/02 01:29:52;;;;;;;13.70;10.53;;;;;;;10.41;58.58;97632.66;7026957;28;20244;-80
2024/03/02 01:33:13;;;;;;;15.47;11.57;;;;;;;10.07;58.16;97579.56;7027318;28;20262;-80
2024/03/02 01:36:36;;;;;;;14.63;10.93;;;;;;;10.22;57.59;97606.84;7024189;28;20684;-81
2024/03/02 01:39:58;;;;;;;16.30;11.60;;;;;;;10.05;59.30;97619.34;7026804;28;20692;-83
2024/03/02 01:43:19;;;;;;;15.47;10.63;;;;;;;10.14;58.87;97627.91;7028067;28;20292;-81
2024/03/02 01:50:42;;;;;;;15.00;11.37;;;;;;;9.20;59.01;97519.34;7026307;28;20663;-80
2024/03/02 01:54:05;;;;;;;21.23;12.90;;;;;;;9.65;60.35;97631.72;7025890;28;20216;-81
2024/03/02 01:57:27;;;;;;;16.73;12.57;;;;;;;9.86;60.07;97625.81;6999227;28;20312;-80
2024/03/02 02:00:50;;;;;;;18.90;12.53;;;;;;;9.66;59.82;97574.16;6998345;28;20289;-80
2024/03/02 02:04:13;;;;;;;14.93;11.53;;;;;;;9.59;59.64;97586.88;6998891;28;20205;-81
2024/03/02 02:07:36;;;;;;;17.20;12.00;;;;;;;9.94;59.43;97630.91;6998398;28;20312;-80
2024/03/02 02:10:58;;;;;;;16.00;12.17;;;;;;;9.76;60.22;97622.03;7006095;28;20201;-80
2024/03/02 02:14:20;;;;;;;17.93;12.23;;;;;;;9.85;59.13;97577.59;7026372;28;20660;-81
2024/03/02 02:17:42;;;;;;;16.53;11.50;;;;;;;9.69;59.48;97614.03;7026696;28;20244;-80
2024/03/02 02:21:03;;;;;;;17.50;12.17;;;;;;;9.81;58.45;97569.16;7028188;28;20205;-80
2024/03/02 02:24:26;;;;;;;14.97;10.53;;;;;;;9.96;58.62;97615.31;7007714;28;20237;-80
2024/03/02 02:27:48;;;;;;;16.47;11.70;;;;;;;9.51;59.67;97619.47;6999228;28;20790;-80
2024/03/02 02:31:09;;;;;;;16.47;11.57;;;;;;;9.16;59.41;97556.63;7003220;28;20273;-79
2024/03/02 02:34:31;;;;;;;17.17;11.90;;;;;;;9.61;59.17;97600.91;7000154;28;20232;-81
2024/03/02 02:37:53;;;;;;;17.17;12.00;;;;;;;9.04;59.86;97584.50;6999356;28;20221;-80
2024/03/02 02:41:16;;;;;;;17.27;12.20;;;;;;;9.08;60.45;97601.81;7002277;28;20231;-83
2024/03/02 02:44:37;;;;;;;16.37;11.53;;;;;;;9.42;59.97;97612.78;6999236;28;20210;-83
2024/03/02 02:48:01;;;;;;;18.23;12.27;;;;;;;9.10;60.05;97605.91;7004741;28;20245;-83
2024/03/02 02:51:23;;;;;;;17.03;11.63;;;;;;;9.06;59.87;97593.16;7026852;28;20204;-82
2024/03/02 02:54:45;;;;;;;18.47;13.23;;;;;;;9.24;60.25;97593.13;7032805;28;20663;-83
2024/03/02 02:58:08;;;;;;;19.73;14.47;;;;;;;9.30;60.42;97608.38;7034232;28;20324;-82
2024/03/02 03:01:29;;;;;;;18.57;13.10;;;;;;;9.19;60.67;97590.31;7029749;28;20292;-83
2024/03/02 03:04:51;;;;;;;19.27;12.87;;;;;;;9.39;59.60;97582.81;7036753;28;20712;-83
2024/03/02 03:08:12;;;;;;;19.33;13.60;;;;;;;9.17;59.59;97581.66;7033404;28;20228;-83
2024/03/02 03:11:34;;;;;;;21.73;13.70;;;;;;;9.43;59.48;97597.44;7029184;28;20218;-83
2024/03/02 03:14:57;;;;;;;17.87;12.73;;;;;;;8.81;60.23;97599.66;7034554;28;20197;-83
2024/03/02 03:18:19;;;;;;;18.97;12.43;;;;;;;9.16;59.82;97588.88;7035881;28;20242;-83
2024/03/02 03:21:41;;;;;;;17.37;12.03;;;;;;;9.09;59.72;97590.03;7029516;28;20194;-82
2024/03/02 03:25:03;;;;;;;20.37;11.93;;;;;;;9.19;59.10;97575.00;7038269;28;20290;-82
2024/03/02 03:28:24;;;;;;;20.60;13.13;;;;;;;8.90;59.48;97596.44;7041301;28;20248;-83
2024/03/02 03:31:47;;;;;;;20.10;13.60;;;;;;;8.94;59.89;97600.31;7041783;28;20318;-83
2024/03/02 03:35:09;;;;;;;22.87;13.40;;;;;;;8.38;60.16;97543.25;7022738;28;20251;-82
2024/03/02 03:38:31;;;;;;;18.43;12.33;;;;;;;9.05;59.47;97592.31;7038973;28;20699;-82
2024/03/02 03:41:52;;;;;;;20.00;12.80;;;;;;;8.98;59.75;97599.66;7042315;28;20224;-83
2024/03/02 03:45:14;;;;;;;20.73;13.53;;;;;;;8.95;59.15;97583.16;7040620;28;20231;-84
2024/03/02 03:48:37;;;;;;;23.60;13.10;;;;;;;8.37;60.52;97546.19;7018438;28;20267;-83
2024/03/02 03:51:58;;;;;;;22.27;14.17;;;;;;;8.95;60.32;97611.91;7041664;28;20619;-82
2024/03/02 03:55:20;;;;;;;20.33;14.13;;;;;;;8.89;60.07;97599.38;7040744;28;20240;-83
2024/03/02 03:58:41;;;;;;;25.07;16.07;;;;;;;8.18;61.21;97547.13;7033940;28;20221;-82
2024/03/02 04:02:04;;;;;;;22.83;14.37;;;;;;;8.14;60.91;97544.06;7042042;28;20216;-82
2024/03/02 04:05:27;;;;;;;20.93;14.03;;;;;;;8.54;60.50;97588.34;7042708;28;20224;-83
2024/03/02 04:08:49;;;;;;;24.80;14.83;;;;;;;8.73;60.50;97598.06;7041398;28;20240;-83
2024/03/02 04:12:12;;;;;;;25.20;14.70;;;;;;;8.81;60.16;97578.16;7032809;28;20335;-83
2024/03/02 04:15:34;;;;;;;21.50;14.20;;;;;;;8.57;60.41;97571.81;7042002;28;20227;-83
2024/03/02 04:18:55;;;;;;;24.03;14.80;;;;;;;8.07;60.34;97546.00;7041320;28;20225;-82
2024/03/02 04:22:18;;;;;;;25.43;15.27;;;;;;;8.07;60.50;97543.31;7033193;28;20233;-82
2024/03/02 04:25:40;;;;;;;24.53;15.03;;;;;;;8.64;60.41;97598.59;7014512;28;20275;-83
2024/03/02 04:29:01;;;;;;;23.17;14.40;;;;;;;8.72;60.07;97596.44;7013437;28;20581;-83
2024/03/02 04:32:23;;;;;;;25.13;15.00;;;;;;;8.76;59.46;97596.81;7014635;28;20593;-83
2024/03/02 04:35:44;;;;;;;21.87;14.93;;;;;;;8.31;60.34;97588.16;7015799;28;20253;-84
2024/03/02 04:39:09;;;;;;;28.07;14.87;;;;;;;8.38;60.29;97605.03;7014016;28;20250;-83
2024/03/02 04:42:31;;;;;;;27.93;14.73;;;;;;;7.77;61.19;97585.25;7015218;28;20284;-83
2024/03/02 04:45:52;;;;;;;25.07;14.80;;;;;;;8.07;61.18;97612.31;7015353;28;20308;-83
2024/03/02 04:49:14;;;;;;;27.27;15.37;;;;;;;8.03;60.95;97617.28;7037743;28;20274;-81
2024/03/02 04:52:35;;;;;;;28.03;15.63;;;;;;;7.82;61.32;97620.31;7036663;28;20346;-81
2024/03/02 04:59:37;;;;;;;26.70;15.60;;;;;;;7.64;61.30;97614.84;7018253;28;20224;-81
2024/03/02 05:03:15;;;;;;;25.80;15.63;;;;;;;7.35;61.66;97537.69;7008342;28;20206;-82
2024/03/02 05:06:37;;;;;;;23.63;14.27;;;;;;;7.09;61.13;97515.56;7009210;28;20249;-81
2024/03/02 05:09:59;;;;;;;29.90;14.90;;;;;;;7.41;61.11;97589.59;7011184;28;20201;-81
2024/03/02 05:30:55;;;;;;;23.70;14.77;;;;;;;7.33;61.97;97542.44;6912359;28;20235;-81
2024/03/02 05:34:18;;;;;;;23.23;15.30;;;;;;;7.40;62.52;97604.03;6929081;28;20777;-81
2024/03/02 05:37:40;;;;;;;29.07;16.97;;;;;;;7.54;61.91;97542.09;6949265;28;20286;-82
2024/03/02 05:41:01;;;;;;;24.73;14.77;;;;;;;8.17;60.81;97602.72;6949506;28;20269;-81
2024/03/02 05:44:23;;;;;;;28.50;17.07;;;;;;;8.51;60.72;97610.28;6949591;28;20276;-81
2024/03/02 05:47:46;;;;;;;24.20;14.67;;;;;;;8.42;60.21;97608.13;6946438;28;20714;-81
2024/03/02 05:51:07;;;;;;;24.67;15.23;;;;;;;7.85;60.10;97576.94;6998532;28;20294;-81
2024/03/02 05:54:31;;;;;;;22.23;14.07;;;;;;;7.67;60.43;97550.03;7036899;28;20239;-81
2024/03/02 05:58:20;;;;;;;21.93;14.57;;;;;;;8.38;59.84;97612.28;7024321;28;20219;-81
2024/03/02 06:01:46;;;;;;;23.93;15.73;;;;;;;8.00;59.83;97579.28;7027089;28;20201;-81
2024/03/02 06:05:11;;;;;;;24.30;14.53;;;;;;;7.89;59.88;97554.00;7009629;28;20210;-81
2024/03/02 06:08:32;;;;;;;25.70;15.30;;;;;;;8.31;59.61;97614.19;7030709;28;20231;-82
2024/03/02 06:11:54;;;;;;;23.97;14.00;;;;;;;8.38;59.27;97609.59;7019459;28;20202;-83
2024/03/02 06:15:16;;;;;;;23.17;14.50;;;;;;;7.40;58.96;97473.50;7026153;28;20210;-81
2024/03/02 06:18:39;;;;;;;23.00;14.00;;;;;;;7.84;59.02;97550.34;7024262;28;20260;-81
2024/03/02 06:22:04;;;;;;;22.37;13.70;;;;;;;7.92;58.65;97553.56;6999239;28;20217;-81
2024/03/02 06:25:28;;;;;;;24.97;14.47;;;;;;;7.59;58.89;97558.34;6998238;28;20212;-81
2024/03/02 06:28:53;;;;;;;21.37;13.30;;;;;;;7.55;59.10;97570.53;7016615;28;20256;-81
2024/03/02 06:32:15;;;;;;;22.23;14.47;;;;;;;7.36;60.51;97592.94;7009264;28;20215;-80
2024/03/02 06:35:42;;;;;;;23.37;14.60;;;;;;;6.90;60.67;97551.31;6998356;28;20345;-82
2024/03/02 06:39:08;;;;;;;22.90;14.97;;;;;;;7.75;61.09;97650.91;7000909;28;20232;-83
2024/03/02 06:42:33;;;;;;;24.30;14.57;;;;;;;7.81;60.64;97636.63;6998933;28;20692;-80
2024/03/02 06:45:54;;;;;;;22.60;14.37;;;;;;;7.89;60.02;97604.19;7023461;28;20209;-81
2024/03/02 06:49:17;;;;;;;22.63;14.13;;;;;;;8.06;59.37;97599.91;7029692;28;20229;-81
2024/03/02 06:52:39;;;;;;;22.00;14.13;;;;;;;8.17;58.79;97596.50;7026888;28;20213;-80
2024/03/02 06:56:07;;;;;;;19.97;12.70;;;;;;;8.12;58.98;97615.97;7024484;28;20204;-81
2024/03/02 06:59:28;;;;;;;23.90;13.60;;;;;;;7.50;59.37;97564.19;7028336;28;20703;-81
2024/03/02 07:02:50;;;;;;;22.63;14.43;;;;;;;8.27;59.97;97653.25;7018694;28;20201;-80
2024/03/02 07:06:11;;;;;;;27.60;14.97;;;;;;;6.94;60.99;97549.84;7014599;28;20441;-80
2024/03/02 07:09:33;;;;;;;23.10;14.83;;;;;;;7.30;61.28;97558.13;7030789;28;20273;-81
2024/03/02 07:12:56;;;;;;;21.80;13.80;;;;;;;8.19;61.18;97654.31;7031539;28;20224;-81
2024/03/02 07:16:27;;;;;;;26.23;15.27;;;;;;;8.48;60.56;97647.53;7032345;28;20295;-81
2024/03/02 07:19:49;;;;;;;22.30;14.47;;;;;;;8.25;60.09;97655.34;7031887;28;20200;-81
2024/03/02 07:23:10;;;;;;;24.27;14.97;;;;;;;8.70;61.00;97649.56;7032818;28;20370;-81
2024/03/02 07:26:32;;;;;;;22.83;14.90;;;;;;;8.41;59.99;97540.16;7033035;28;20257;-81
2024/03/02 07:29:55;;;;;;;22.57;15.33;;;;;;;9.20;60.28;97632.28;7034099;28;20973;-81
2024/03/02 07:33:17;;;;;;;19.17;13.43;;;;;;;9.33;59.04;97611.44;7014529;28;20280;-81
2024/03/02 07:36:38;;;;;;;18.47;13.17;;;;;;;9.72;58.87;97656.66;7031313;28;20223;-81
2024/03/02 07:40:00;;;;;;;17.83;12.73;;;;;;;9.54;58.04;97645.09;7031502;28;20228;-81
2024/03/02 07:43:22;;;;;;;18.30;12.57;;;;;;;9.37;59.26;97634.16;7023366;28;20314;-81
2024/03/02 07:46:46;;;;;;;17.50;13.07;;;;;;;9.86;59.41;97650.03;7003942;28;20290;-81
2024/03/02 07:50:09;;;;;;;33.30;27.23;;;;;;;10.56;58.98;97657.28;7004848;28;20210;-81
2024/03/02 07:53:30;;;;;;;59.47;24.70;;;;;;;11.31;57.25;97634.75;7009490;28;20213;-80
2024/03/02 07:56:52;;;;;;;16.67;13.27;;;;;;;12.26;56.14;97642.03;7003851;28;20226;-81
2024/03/02 08:00:14;;;;;;;12.33;9.97;;;;;;;13.16;54.03;97634.56;7002913;28;20309;-78
2024/03/02 08:03:38;;;;;;;10.00;8.77;;;;;;;13.34;53.37;97639.69;7003265;28;20214;-80
2024/03/02 08:06:59;;;;;;;17.30;11.87;;;;;;;13.75;52.92;97649.94;7004108;28;20256;-82
2024/03/02 08:10:21;;;;;;;10.80;8.83;;;;;;;14.06;51.41;97635.66;7018963;28;20296;-79
2024/03/02 08:13:42;;;;;;;10.80;8.40;;;;;;;13.93;51.43;97647.72;7030277;28;20300;-79
2024/03/02 08:17:09;;;;;;;17.77;10.37;;;;;;;14.11;51.33;97644.66;7029218;28;20646;-79
2024/03/02 08:20:32;;;;;;;13.70;11.67;;;;;;;13.40;53.56;97628.66;7029193;28;20828;-81
2024/03/02 08:23:53;;;;;;;14.97;10.27;;;;;;;13.70;53.63;97633.63;7024370;28;20204;-78
2024/03/02 08:27:15;;;;;;;56.33;35.90;;;;;;;13.91;52.62;97622.78;7000190;28;20683;-79
2024/03/02 08:30:37;;;;;;;11.03;7.97;;;;;;;13.87;52.81;97634.38;7004447;28;20213;-78
2024/03/02 08:33:58;;;;;;;9.70;8.57;;;;;;;13.99;52.35;97630.44;7029441;28;20248;-79
2024/03/02 08:37:21;;;;;;;9.03;8.03;;;;;;;14.46;51.46;97634.19;7029881;28;20233;-80
2024/03/02 08:40:43;;;;;;;10.80;8.10;;;;;;;14.87;50.34;97629.91;7029546;28;20633;-80
2024/03/02 08:44:05;;;;;;;11.50;8.80;;;;;;;14.53;51.14;97612.28;7029478;28;20689;-79
2024/03/02 08:47:28;;;;;;;8.07;6.40;;;;;;;14.51;48.23;97623.38;7029762;28;20224;-80
2024/03/02 08:50:49;;;;;;;7.40;6.63;;;;;;;13.77;50.10;97609.88;7030288;28;20686;-80
2024/03/02 08:54:12;;;;;;;6.60;5.93;;;;;;;13.29;50.29;97617.94;7029900;28;20302;-80
2024/03/02 08:57:34;;;;;;;6.90;6.20;;;;;;;13.86;50.52;97620.00;7028238;28;20360;-80
2024/03/02 09:00:55;;;;;;;6.53;5.87;;;;;;;14.24;49.72;97613.66;7035621;28;20213;-80
2024/03/02 09:04:17;;;;;;;6.17;5.57;;;;;;;14.70;48.08;97605.63;7034170;28;20265;-80
2024/03/02 09:07:38;;;;;;;5.43;4.93;;;;;;;15.49;46.13;97601.78;7030348;28;20226;-80
2024/03/02 09:11:01;;;;;;;6.10;5.50;;;;;;;16.13;45.05;97611.25;7029824;28;20681;-80
2024/03/02 09:14:23;;;;;;;5.97;5.23;;;;;;;17.55;42.99;97605.44;7028720;28;20291;-80
2024/03/02 09:17:45;;;;;;;6.63;5.80;;;;;;;17.30;42.27;97608.22;7028645;28;20220;-80
2024/03/02 09:21:07;;;;;;;6.33;5.47;;;;;;;18.11;39.91;97576.81;7027322;28;20212;-80
2024/03/02 09:24:28;;;;;;;6.63;5.93;;;;;;;18.34;40.13;97587.06;7027937;28;20209;-80
2024/03/02 09:27:51;;;;;;;6.37;5.60;;;;;;;18.19;39.83;97598.88;7028545;28;20263;-80
2024/03/02 09:31:13;;;;;;;6.70;5.67;;;;;;;18.54;40.18;97590.47;7029356;28;20224;-79
2024/03/02 09:34:34;;;;;;;5.60;5.10;;;;;;;18.33;39.20;97542.59;7029294;28;20355;-80
2024/03/02 09:37:56;;;;;;;6.07;4.70;;;;;;;18.27;38.12;97504.69;7027828;28;20220;-80
2024/03/02 09:41:18;;;;;;;4.40;4.00;;;;;;;18.62;37.16;97594.47;7028912;28;20290;-80
2024/03/02 09:44:41;;;;;;;3.63;3.33;;;;;;;18.53;38.05;97593.47;7027586;28;20236;-80
2024/03/02 09:48:02;;;;;;;3.93;3.63;;;;;;;18.63;37.18;97587.94;7026274;28;20712;-80
2024/03/02 09:51:24;;;;;;;4.07;3.40;;;;;;;17.86;38.58;97582.44;7025392;28;20292;-80
2024/03/02 09:54:48;;;;;;;3.47;3.17;;;;;;;18.67;36.58;97576.16;7026443;28;20219;-80
2024/03/02 09:58:09;;;;;;;3.33;2.93;;;;;;;18.01;37.56;97580.44;7034787;28;20257;-79
2024/03/02 10:01:32;;;;;;;3.67;2.80;;;;;;;18.71;37.10;97573.66;7026532;28;20285;-79
2024/03/02 10:04:54;;;;;;;3.20;2.90;;;;;;;18.12;37.51;97576.56;7012674;28;20285;-80
2024/03/02 10:08:15;;;;;;;3.60;2.70;;;;;;;18.12;36.97;97565.63;7025996;28;20263;-80
2024/03/02 10:11:38;;;;;;;2.60;2.40;;;;;;;18.18;37.11;97550.03;7026205;28;20240;-80
2024/03/02 10:15:09;;;;;;;2.87;2.60;;;;;;;18.89;35.48;97571.03;7026419;28;20246;-80
2024/03/02 10:18:32;;;;;;;2.43;2.20;;;;;;;19.00;35.27;97561.66;7025177;28;20267;-80
2024/03/02 10:21:56;;;;;;;2.57;2.37;;;;;;;19.55;34.07;97561.06;7024882;28;20267;-79
2024/03/02 10:25:30;;;;;;;2.60;2.40;;;;;;;19.78;33.62;97540.22;7025503;28;20265;-79
2024/03/02 10:28:58;;;;;;;2.80;2.60;;;;;;;19.88;33.76;97545.56;7024780;28;20229;-79
2024/03/02 10:32:23;;;;;;;2.60;2.40;;;;;;;19.97;33.82;97536.41;7025738;28;20210;-80
2024/03/02 10:35:46;;;;;;;2.47;2.27;;;;;;;20.65;32.33;97544.97;7022654;28;20205;-80
2024/03/02 10:39:08;;;;;;;5.63;4.90;;;;;;;19.18;36.85;97551.88;7021239;28;20258;-79
2024/03/02 10:42:30;;;;;;;6.50;5.80;;;;;;;18.65;39.14;97536.59;7022740;28;20214;-79
2024/03/02 10:45:53;;;;;;;7.63;5.83;;;;;;;18.19;40.36;97540.75;7022450;28;20682;-79
2024/03/02 10:49:14;;;;;;;4.47;4.00;;;;;;;17.76;39.08;97527.94;7024565;28;20315;-80
2024/03/02 10:52:38;;;;;;;4.50;3.70;;;;;;;18.89;36.97;97527.34;7023833;28;20288;-80
2024/03/02 10:56:04;;;;;;;5.60;5.00;;;;;;;18.49;40.18;97530.44;7025727;28;20213;-80
2024/03/02 10:59:29;;;;;;;3.40;3.10;;;;;;;19.76;35.55;97523.31;7002306;28;20612;-80
2024/03/02 11:02:52;;;;;;;4.17;3.60;;;;;;;18.27;37.91;97518.34;6998645;28;20547;-80
2024/03/02 11:06:14;;;;;;;4.20;3.80;;;;;;;18.26;37.33;97513.94;6997939;28;20711;-79
2024/03/02 11:09:40;;;;;;;3.33;3.03;;;;;;;18.53;37.25;97515.13;6996623;28;20367;-80
2024/03/02 11:13:04;;;;;;;4.60;3.20;;;;;;;19.02;36.28;97488.41;6998648;28;20702;-79
2024/03/02 11:16:34;;;;;;;4.47;3.90;;;;;;;19.21;37.36;97499.44;7017313;28;20213;-80
2024/03/02 11:19:56;;;;;;;3.87;2.73;;;;;;;18.94;36.16;97489.06;7026026;28;20181;-79
2024/03/02 11:23:18;;;;;;;5.03;3.10;;;;;;;18.93;36.75;97478.41;7026849;28;20659;-80
2024/03/02 11:26:41;;;;;;;4.00;3.60;;;;;;;19.22;36.70;97484.66;7025312;28;20280;-81
2024/03/02 11:30:03;;;;;;;3.60;3.30;;;;;;;18.53;38.42;97482.38;7023045;28;20366;-80
2024/03/02 11:33:27;;;;;;;3.87;3.47;;;;;;;19.72;35.72;97459.38;7026210;28;20683;-81
2024/03/02 11:36:48;;;;;;;2.80;2.50;;;;;;;20.25;34.25;97455.28;7025603;28;20579;-80
2024/03/02 11:40:11;;;;;;;2.07;1.97;;;;;;;20.64;33.80;97453.75;7025201;28;20295;-80
2024/03/02 11:43:33;;;;;;;6.07;5.40;;;;;;;21.10;32.69;97451.00;7025633;28;20633;-81
2024/03/02 11:46:59;;;;;;;2.50;2.30;;;;;;;20.43;33.27;97449.78;7029800;28;20228;-81
2024/03/02 11:50:30;;;;;;;2.10;2.00;;;;;;;20.20;32.66;97426.06;7026813;28;20279;-79
2024/03/02 11:53:52;;;;;;;2.43;2.23;;;;;;;20.60;34.07;97435.50;7042266;28;20192;-80
2024/03/02 11:57:15;;;;;;;1.50;1.40;;;;;;;21.57;31.24;97412.94;7037687;28;20378;-80
2024/03/02 12:00:37;;;;;;;1.70;1.60;;;;;;;21.56;31.32;97412.16;7029951;28;20239;-80
2024/03/02 12:03:59;;;;;;;2.40;2.20;;;;;;;20.87;32.49;97419.88;7030609;28;20296;-79
2024/03/02 12:07:22;;;;;;;2.20;2.10;;;;;;;19.56;34.94;97381.41;7029992;28;20240;-79
2024/03/02 12:10:44;;;;;;;1.53;1.43;;;;;;;19.49;34.42;97397.38;7030735;28;20213;-80
2024/03/02 12:14:05;;;;;;;1.23;1.20;;;;;;;21.12;32.08;97392.03;7030636;28;20216;-80
2024/03/02 12:17:28;;;;;;;0.90;0.90;;;;;;;21.00;30.76;97369.81;7027678;28;20225;-80
2024/03/02 12:20:52;;;;;;;1.60;1.50;;;;;;;21.50;31.68;97385.13;7027995;28;20420;-80
2024/03/02 12:24:14;;;;;;;2.00;1.90;;;;;;;21.23;32.25;97348.75;7029287;28;20213;-80
2024/03/02 12:27:35;;;;;;;2.27;2.07;;;;;;;20.77;32.71;97377.06;7028830;28;20659;-80
2024/03/02 12:30:57;;;;;;;3.97;2.40;;;;;;;20.28;33.73;97387.06;7028744;28;20209;-79
2024/03/02 12:34:20;;;;;;;3.20;2.30;;;;;;;21.33;32.56;97374.81;7028551;28;20210;-80
2024/03/02 12:37:45;;;;;;;2.30;2.10;;;;;;;19.91;34.69;97345.28;7028483;28;20322;-80
2024/03/02 12:41:06;;;;;;;2.40;2.10;;;;;;;20.56;33.61;97355.88;7028036;28;20242;-79
2024/03/02 12:44:28;;;;;;;2.23;2.03;;;;;;;20.61;32.99;97355.78;7028567;28;20233;-79
2024/03/02 12:47:50;;;;;;;3.50;2.70;;;;;;;21.43;32.04;97340.88;7027615;28;20237;-80
2024/03/02 12:51:14;;;;;;;2.27;2.07;;;;;;;21.46;32.61;97342.97;7027194;28;20342;-79
2024/03/02 12:54:35;;;;;;;2.90;2.70;;;;;;;19.05;34.85;97334.03;7027870;28;20205;-79
2024/03/02 12:57:58;;;;;;;4.33;2.77;;;;;;;19.61;35.00;97348.50;7027557;28;20242;-78
2024/03/02 13:01:20;;;;;;;3.63;2.60;;;;;;;20.13;34.07;97337.25;7027564;28;20791;-80
2024/03/02 13:04:42;;;;;;;2.50;2.30;;;;;;;20.06;32.76;97230.97;7027352;28;20667;-79
2024/03/02 13:08:07;;;;;;;2.90;2.70;;;;;;;20.80;32.13;97325.56;7027466;28;20657;-78
2024/03/02 13:11:28;;;;;;;2.60;2.40;;;;;;;21.05;32.04;97341.47;7026775;28;20212;-79
2024/03/02 13:14:51;;;;;;;2.87;2.67;;;;;;;20.29;32.17;97338.63;7025830;28;20285;-80
2024/03/02 13:18:12;;;;;;;3.03;2.70;;;;;;;20.18;33.13;97324.31;7020788;28;20225;-78
2024/03/02 13:21:34;;;;;;;1.70;1.60;;;;;;;21.64;29.74;97309.09;7009046;28;20201;-79
2024/03/02 13:24:57;;;;;;;1.70;1.60;;;;;;;22.36;28.37;97316.81;7023574;28;20659;-80
2024/03/02 13:28:19;;;;;;;2.20;2.00;;;;;;;20.86;30.42;97327.06;7020224;28;20232;-80
2024/03/02 13:31:40;;;;;;;2.77;2.20;;;;;;;21.63;30.45;97301.97;7026443;28;20243;-78
2024/03/02 13:35:02;;;;;;;2.00;1.90;;;;;;;22.19;29.14;97307.69;7025420;28;20209;-78
2024/03/02 13:38:24;;;;;;;2.40;2.20;;;;;;;21.65;28.84;97322.50;7023687;28;20225;-79
2024/03/02 13:41:52;;;;;;;2.90;2.50;;;;;;;21.01;29.23;97318.53;7025160;28;20282;-78
2024/03/02 13:45:14;;;;;;;5.00;3.30;;;;;;;20.26;30.40;97317.31;7024969;28;20213;-78
2024/03/02 13:48:36;;;;;;;3.30;2.97;;;;;;;20.27;30.28;97317.00;7025362;28;20332;-80
2024/03/02 13:52:00;;;;;;;2.73;2.53;;;;;;;20.40;30.45;97316.22;7023555;28;20200;-80
2024/03/02 13:55:21;;;;;;;2.70;2.40;;;;;;;19.82;29.42;97232.22;7008955;28;20391;-81
2024/03/02 13:58:46;;;;;;;2.07;1.63;;;;;;;21.23;29.15;97311.16;7017971;28;20315;-81
2024/03/02 14:02:08;;;;;;;1.53;1.43;;;;;;;21.59;28.48;97306.50;7023197;28;20311;-80
2024/03/02 14:05:30;;;;;;;1.50;1.40;;;;;;;21.55;27.67;97303.53;7032166;28;20201;-80
2024/03/02 14:08:51;;;;;;;1.77;1.67;;;;;;;22.01;27.06;97303.25;7026629;28;20276;-80
2024/03/02 14:12:13;;;;;;;1.90;1.70;;;;;;;22.08;27.43;97304.41;7028154;28;20254;-79
2024/03/02 14:15:38;;;;;;;2.10;2.00;;;;;;;22.12;26.62;97299.13;7026817;28;20204;-79
2024/03/02 14:19:00;;;;;;;1.57;1.40;;;;;;;21.99;26.35;97258.81;7026138;28;20225;-79
2024/03/02 14:22:21;;;;;;;1.50;1.40;;;;;;;22.58;27.02;97294.00;7025538;28;20202;-79
2024/03/02 14:25:43;;;;;;;1.73;1.60;;;;;;;20.43;27.81;97274.53;7018958;28;20721;-78
2024/03/02 14:29:05;;;;;;;1.67;1.57;;;;;;;20.33;28.13;97261.06;7013298;28;20314;-80
2024/03/02 14:32:28;;;;;;;1.60;1.50;;;;;;;21.00;26.61;97286.78;7026054;28;20331;-80
2024/03/02 14:35:49;;;;;;;2.97;1.60;;;;;;;19.81;28.46;97268.88;7036415;28;20256;-80
2024/03/02 14:39:11;;;;;;;1.67;1.57;;;;;;;20.45;28.42;97286.00;7050250;28;20774;-79
2024/03/02 14:42:32;;;;;;;1.50;1.40;;;;;;;20.90;27.81;97263.16;7021468;28;20212;-80
2024/03/02 14:45:54;;;;;;;1.67;1.57;;;;;;;20.99;27.72;97287.91;7021709;28;20269;-79
2024/03/02 14:49:17;;;;;;;1.60;1.50;;;;;;;20.43;28.68;97284.69;7024485;28;20316;-79
2024/03/02 14:52:38;;;;;;;1.73;1.50;;;;;;;20.87;28.11;97268.41;7025365;28;20249;-80
2024/03/02 14:56:00;;;;;;;1.83;1.73;;;;;;;21.04;26.99;97268.59;7025525;28;20292;-79
2024/03/02 14:59:21;;;;;;;1.50;1.40;;;;;;;20.87;28.19;97246.50;7025181;28;20264;-80
2024/03/02 15:02:43;;;;;;;3.10;1.53;;;;;;;20.58;28.70;97266.00;7025535;28;20245;-79
2024/03/02 15:06:07;;;;;;;3.37;1.93;;;;;;;20.73;29.21;97262.94;7025642;28;20251;-80
2024/03/02 15:09:29;;;;;;;1.73;1.63;;;;;;;20.32;30.50;97266.81;7024710;28;20236;-79
2024/03/02 15:12:50;;;;;;;1.70;1.60;;;;;;;20.07;30.48;97262.69;7024466;28;20343;-81
2024/03/02 15:16:12;;;;;;;1.67;1.57;;;;;;;19.77;30.79;97257.75;7025786;28;20287;-81
2024/03/02 15:19:33;;;;;;;1.90;1.73;;;;;;;19.93;30.25;97250.84;7025569;28;20319;-80
2024/03/02 15:22:56;;;;;;;1.63;1.53;;;;;;;20.13;29.87;97246.97;7027692;28;20232;-80
2024/03/02 15:26:18;;;;;;;2.07;1.87;;;;;;;20.09;29.50;97248.66;7041086;28;20745;-80
2024/03/02 15:29:39;;;;;;;2.00;1.90;;;;;;;19.95;30.48;97248.66;7057142;28;20761;-80
2024/03/02 15:33:01;;;;;;;2.70;2.20;;;;;;;19.76;32.51;97245.16;7058270;28;20639;-80
2024/03/02 15:36:23;;;;;;;2.47;2.00;;;;;;;19.70;33.10;97253.78;7060431;28;20354;-79
2024/03/02 15:39:46;;;;;;;2.77;2.33;;;;;;;20.00;33.35;97247.75;7029180;28;20236;-80
2024/03/02 15:43:07;;;;;;;4.27;3.13;;;;;;;19.47;33.91;97243.78;7042175;28;20728;-79
2024/03/02 15:46:29;;;;;;;2.90;2.70;;;;;;;18.22;34.23;97182.81;7018576;28;20833;-79
2024/03/02 15:49:50;;;;;;;3.03;2.20;;;;;;;19.00;33.46;97254.88;7000238;28;20716;-80
2024/03/02 15:53:13;;;;;;;3.50;2.10;;;;;;;18.94;34.39;97254.16;7029024;28;20197;-79
2024/03/02 15:56:36;;;;;;;3.57;2.40;;;;;;;18.87;34.09;97223.66;7050511;28;20600;-79
2024/03/02 15:59:58;;;;;;;2.47;2.27;;;;;;;18.50;34.89;97256.41;7058733;28;20215;-80
2024/03/02 16:03:19;;;;;;;2.60;2.40;;;;;;;18.46;35.76;97243.66;7053810;28;20249;-80
2024/03/02 16:06:41;;;;;;;2.57;2.37;;;;;;;18.69;35.71;97254.50;7023737;28;20317;-79
2024/03/02 16:10:04;;;;;;;2.40;2.20;;;;;;;18.66;36.13;97249.66;7021356;28;20267;-79
2024/03/02 16:13:27;;;;;;;2.87;2.67;;;;;;;19.14;35.52;97258.50;7033331;28;20292;-79